Time;durP1;ratioP1;P1;durP2;ratioP2;P2;SDS_P1;SDS_P2;PMS_P1;PMS_P2;Temp;Humidity;BMP_temperature;BMP_pressure;BME280_temperature;BME280_humidity;BME280_pressure;Samples;Min_cycle;Max_cycle;Signal;HPM_P1;HPM_P2
2022/02/23 00:00:49;;;;;;;24.63;3.90;;;;;;;5.17;100.00;102346.72;5221608;28;20021;-73
2022/02/23 00:03:19;;;;;;;22.33;3.20;;;;;;;5.07;100.00;102344.69;5220830;28;20525;-72
2022/02/23 00:05:50;;;;;;;16.95;4.32;;;;;;;4.99;100.00;102347.84;5221596;28;20126;-72
2022/02/23 00:08:21;;;;;;;12.05;3.08;;;;;;;4.90;100.00;102351.91;5222251;28;20016;-72
2022/02/23 00:10:52;;;;;;;14.43;3.67;;;;;;;4.82;100.00;102356.84;5221549;28;20033;-72
2022/02/23 00:13:22;;;;;;;16.17;4.22;;;;;;;4.74;100.00;102352.91;5220995;28;20040;-72
2022/02/23 00:15:55;;;;;;;18.95;4.07;;;;;;;4.65;100.00;102356.97;5220890;28;20493;-72
2022/02/23 00:18:25;;;;;;;11.32;3.70;;;;;;;4.57;100.00;102357.44;5221673;28;20505;-71
2022/02/23 00:20:55;;;;;;;25.30;4.05;;;;;;;4.52;100.00;102361.28;5221063;28;20031;-72
2022/02/23 00:23:26;;;;;;;21.08;5.30;;;;;;;4.45;100.00;102358.16;5221098;28;20359;-72
2022/02/23 00:25:56;;;;;;;15.80;3.80;;;;;;;4.40;100.00;102370.84;5220413;28;20482;-71
2022/02/23 00:28:27;;;;;;;21.23;3.97;;;;;;;4.35;100.00;102383.53;5221189;28;20055;-72
2022/02/23 00:30:57;;;;;;;18.65;4.35;;;;;;;4.30;100.00;102377.63;5221229;28;20021;-72
2022/02/23 00:33:28;;;;;;;24.45;4.55;;;;;;;4.27;100.00;102383.16;5220959;28;20025;-71
2022/02/23 00:35:58;;;;;;;18.67;4.72;;;;;;;4.23;100.00;102390.44;5220663;28;20020;-72
2022/02/23 00:38:29;;;;;;;25.73;4.45;;;;;;;4.19;100.00;102388.03;5220650;28;20147;-72
2022/02/23 00:40:59;;;;;;;23.92;5.45;;;;;;;4.16;100.00;102391.69;5220409;28;20028;-72
2022/02/23 00:43:30;;;;;;;14.82;4.20;;;;;;;4.13;100.00;102387.44;5221024;28;20079;-71
2022/02/23 00:46:00;;;;;;;22.45;4.63;;;;;;;4.12;100.00;102393.69;5220612;28;20049;-72
2022/02/23 00:48:31;;;;;;;17.45;4.22;;;;;;;4.07;100.00;102392.25;5221273;28;20024;-72
2022/02/23 00:51:01;;;;;;;15.23;4.75;;;;;;;3.97;100.00;102399.88;5219297;28;20047;-72
2022/02/23 00:53:31;;;;;;;17.02;4.72;;;;;;;3.87;100.00;102398.69;5221192;28;20379;-72
2022/02/23 00:56:02;;;;;;;16.60;4.82;;;;;;;3.75;100.00;102400.19;5220709;28;20087;-72
2022/02/23 00:58:33;;;;;;;22.65;4.90;;;;;;;3.71;100.00;102400.44;5221268;28;20268;-72
2022/02/23 01:01:03;;;;;;;19.38;5.00;;;;;;;3.68;100.00;102406.78;5220391;28;20033;-71
2022/02/23 01:03:35;;;;;;;23.30;5.13;;;;;;;3.66;100.00;102407.78;5220256;28;20096;-71
2022/02/23 01:06:05;;;;;;;24.10;5.30;;;;;;;3.65;100.00;102406.94;5218848;28;20065;-71
2022/02/23 01:08:36;;;;;;;20.83;5.25;;;;;;;3.61;100.00;102414.22;5220538;28;20021;-73
2022/02/23 01:11:06;;;;;;;18.05;5.07;;;;;;;3.58;100.00;102416.19;5220258;28;20113;-72
2022/02/23 01:13:37;;;;;;;19.55;5.95;;;;;;;3.46;100.00;102409.72;5220698;28;20032;-72
2022/02/23 01:16:08;;;;;;;24.05;5.40;;;;;;;3.34;100.00;102413.03;5219792;28;20024;-72
2022/02/23 01:18:38;;;;;;;23.70;5.25;;;;;;;3.28;100.00;102419.53;5220709;28;20029;-71
2022/02/23 01:21:09;;;;;;;23.20;5.05;;;;;;;3.31;100.00;102421.16;5220438;28;20513;-72
2022/02/23 01:23:39;;;;;;;36.88;5.90;;;;;;;3.34;100.00;102416.56;5219902;28;20044;-73
2022/02/23 01:26:10;;;;;;;17.95;5.03;;;;;;;3.35;100.00;102415.59;5220848;28;20013;-72
2022/02/23 01:28:41;;;;;;;24.10;5.82;;;;;;;3.34;100.00;102421.84;5220005;28;20036;-73
2022/02/23 01:31:12;;;;;;;14.95;4.20;;;;;;;3.29;100.00;102426.53;5220472;28;20021;-74
2022/02/23 01:33:42;;;;;;;18.80;4.68;;;;;;;3.21;100.00;102428.72;5220178;28;20029;-72
2022/02/23 01:36:13;;;;;;;15.20;4.55;;;;;;;3.14;100.00;102434.44;5220490;28;20114;-72
2022/02/23 01:38:43;;;;;;;24.63;5.50;;;;;;;3.00;100.00;102436.00;5219638;28;20025;-72
2022/02/23 01:41:17;;;;;;;21.65;6.35;;;;;;;2.90;100.00;102429.47;5220162;28;20516;-71
2022/02/23 01:43:48;;;;;;;21.88;6.07;;;;;;;2.87;100.00;102434.09;5220522;28;20106;-72
2022/02/23 01:46:19;;;;;;;22.25;7.32;;;;;;;2.80;100.00;102437.00;5219171;28;20033;-72
2022/02/23 01:48:49;;;;;;;15.30;5.15;;;;;;;2.73;100.00;102435.63;5220433;28;20047;-71
2022/02/23 01:51:20;;;;;;;23.23;5.13;;;;;;;2.65;100.00;102435.13;5222105;28;20021;-71
2022/02/23 01:53:50;;;;;;;21.77;4.88;;;;;;;2.62;100.00;102435.31;5224178;28;20029;-72
2022/02/23 01:56:21;;;;;;;22.88;5.55;;;;;;;2.58;100.00;102431.94;5223826;28;20020;-71
2022/02/23 01:58:52;;;;;;;19.15;4.82;;;;;;;2.58;100.00;102424.00;5224104;28;20413;-71
2022/02/23 02:01:22;;;;;;;17.48;4.32;;;;;;;2.57;100.00;102419.63;5224381;28;20041;-72
2022/02/23 02:03:53;;;;;;;16.90;3.88;;;;;;;2.57;100.00;102426.72;5224047;28;20013;-70
2022/02/23 02:06:23;;;;;;;16.67;4.07;;;;;;;2.55;100.00;102434.72;5224500;28;20025;-72
2022/02/23 02:08:54;;;;;;;20.65;4.57;;;;;;;2.53;100.00;102433.09;5221187;28;20079;-72
2022/02/23 02:11:24;;;;;;;16.77;4.03;;;;;;;2.48;100.00;102435.13;5214542;28;20487;-72
2022/02/23 02:13:55;;;;;;;28.35;4.70;;;;;;;2.41;100.00;102445.16;5224446;28;20025;-72
2022/02/23 02:16:45;;;;;;;25.77;4.85;;;;;;;2.34;100.00;102444.59;5223532;28;20039;-72
2022/02/23 02:19:16;;;;;;;23.75;4.57;;;;;;;2.32;100.00;102449.13;5224776;28;20030;-72
2022/02/23 02:21:53;;;;;;;14.60;4.05;;;;;;;2.32;100.00;102448.25;5224606;28;20093;-71
2022/02/23 02:24:27;;;;;;;25.38;4.65;;;;;;;2.32;100.00;102457.06;5224165;28;20405;-71
2022/02/23 02:26:59;;;;;;;15.10;4.22;;;;;;;2.33;100.00;102452.63;5222755;28;20107;-72
2022/02/23 02:29:30;;;;;;;45.03;5.93;;;;;;;2.32;100.00;102459.72;5223030;28;20025;-72
2022/02/23 02:32:03;;;;;;;11.55;3.88;;;;;;;2.29;100.00;102462.50;5223947;28;20655;-72
2022/02/23 02:34:33;;;;;;;26.50;4.60;;;;;;;2.27;100.00;102460.88;5223620;28;20021;-71
2022/02/23 02:37:04;;;;;;;18.08;4.10;;;;;;;2.21;100.00;102464.66;5223856;28;20082;-71
2022/02/23 02:39:35;;;;;;;22.48;4.38;;;;;;;2.14;100.00;102468.53;5223718;28;20064;-71
2022/02/23 02:42:07;;;;;;;17.55;4.00;;;;;;;2.07;100.00;102461.81;5223707;28;20389;-71
2022/02/23 02:44:38;;;;;;;18.75;4.65;;;;;;;2.04;100.00;102464.59;5223813;28;20104;-71
2022/02/23 02:47:08;;;;;;;25.30;5.15;;;;;;;2.03;100.00;102468.16;5223619;28;20052;-71
2022/02/23 02:49:39;;;;;;;18.55;4.90;;;;;;;2.01;100.00;102472.69;5223615;28;20025;-71
2022/02/23 02:52:10;;;;;;;16.98;4.70;;;;;;;2.05;100.00;102469.81;5223661;28;20051;-72
2022/02/23 02:54:40;;;;;;;20.58;4.53;;;;;;;2.15;100.00;102477.31;5223227;28;20433;-71
2022/02/23 02:57:14;;;;;;;26.55;6.07;;;;;;;2.23;100.00;102473.38;5223756;28;20028;-72
2022/02/23 02:59:45;;;;;;;20.80;4.85;;;;;;;2.31;100.00;102473.03;5223582;28;20390;-72
2022/02/23 03:02:16;;;;;;;33.05;4.20;;;;;;;2.34;100.00;102476.38;5222266;28;20458;-71
2022/02/23 03:04:46;;;;;;;26.95;4.28;;;;;;;2.38;100.00;102482.38;5223811;28;20025;-71
2022/02/23 03:07:22;;;;;;;25.63;4.28;;;;;;;2.43;100.00;102484.81;5223976;28;20116;-70
2022/02/23 03:09:53;;;;;;;20.73;4.57;;;;;;;2.45;100.00;102488.25;5223703;28;20652;-71
2022/02/23 03:12:24;;;;;;;15.80;4.22;;;;;;;2.42;100.00;102491.91;5223190;28;20036;-72
2022/02/23 03:14:55;;;;;;;28.88;5.95;;;;;;;2.42;100.00;102486.63;5222691;28;20029;-72
2022/02/23 03:17:30;;;;;;;15.65;4.55;;;;;;;2.34;100.00;102486.13;5210444;28;20108;-71
2022/02/23 03:20:00;;;;;;;27.17;4.35;;;;;;;2.34;100.00;102486.13;5223500;28;20631;-72
2022/02/23 03:22:31;;;;;;;25.35;3.88;;;;;;;2.37;100.00;102487.78;5222899;28;20017;-71
2022/02/23 03:25:03;;;;;;;12.82;3.85;;;;;;;2.34;100.00;102491.41;5222636;28;20498;-71
2022/02/23 03:27:34;;;;;;;19.48;7.93;;;;;;;2.36;100.00;102491.31;5223107;28;20029;-71
2022/02/23 03:30:05;;;;;;;16.63;4.47;;;;;;;2.39;100.00;102493.84;5223533;28;20021;-71
2022/02/23 03:32:36;;;;;;;22.08;4.40;;;;;;;2.35;100.00;102501.06;5223198;28;20028;-72
2022/02/23 03:35:07;;;;;;;19.83;4.28;;;;;;;2.35;100.00;102498.41;5222424;28;20036;-72
2022/02/23 03:37:38;;;;;;;10.55;3.92;;;;;;;2.33;100.00;102508.25;5222705;28;20584;-72
2022/02/23 03:40:09;;;;;;;15.38;4.03;;;;;;;2.30;100.00;102506.59;5222858;28;20020;-71
2022/02/23 03:42:39;;;;;;;24.80;4.32;;;;;;;2.34;100.00;102509.94;5222704;28;20025;-72
2022/02/23 03:45:10;;;;;;;19.90;4.65;;;;;;;2.39;100.00;102510.59;5221603;28;20493;-71
2022/02/23 03:47:40;;;;;;;26.50;4.97;;;;;;;2.43;100.00;102509.53;5223343;28;20486;-71
2022/02/23 03:50:12;;;;;;;19.95;4.05;;;;;;;2.43;100.00;102511.31;5222549;28;20508;-71
2022/02/23 03:52:43;;;;;;;19.77;3.85;;;;;;;2.38;100.00;102508.03;5222417;28;20028;-71
2022/02/23 03:55:14;;;;;;;19.17;4.35;;;;;;;2.39;100.00;102520.34;5222637;28;20429;-71
2022/02/23 03:57:44;;;;;;;17.70;4.53;;;;;;;2.34;100.00;102518.75;5222809;28;20496;-71
2022/02/23 04:00:16;;;;;;;15.63;4.30;;;;;;;2.29;100.00;102528.72;5222762;28;20029;-70
2022/02/23 04:02:46;;;;;;;17.55;3.25;;;;;;;2.32;100.00;102519.78;5222016;28;20024;-71
2022/02/23 04:05:17;;;;;;;25.70;3.30;;;;;;;2.35;100.00;102532.84;5222099;28;20727;-71
2022/02/23 04:07:48;;;;;;;17.70;4.00;;;;;;;2.38;100.00;102537.16;5222294;28;20074;-71
2022/02/23 04:10:20;;;;;;;19.45;4.35;;;;;;;2.33;100.00;102545.31;5208726;28;21090;-71
2022/02/23 04:12:51;;;;;;;22.08;3.65;;;;;;;2.29;100.00;102541.09;5221770;28;20116;-71
2022/02/23 04:15:21;;;;;;;16.98;3.15;;;;;;;2.26;100.00;102543.88;5220044;28;20116;-71
2022/02/23 04:17:52;;;;;;;22.80;4.40;;;;;;;2.21;100.00;102543.22;5221578;28;20071;-70
2022/02/23 04:20:23;;;;;;;15.40;3.47;;;;;;;2.16;100.00;102554.06;5221646;28;20025;-71
2022/02/23 04:22:53;;;;;;;18.27;3.97;;;;;;;2.09;100.00;102549.94;5220988;28;20402;-71
2022/02/23 04:25:24;;;;;;;21.35;3.25;;;;;;;2.08;100.00;102553.53;5222250;28;20661;-71
2022/02/23 04:27:54;;;;;;;18.27;3.90;;;;;;;2.06;100.00;102550.97;5220425;28;20063;-71
2022/02/23 04:30:25;;;;;;;30.45;4.97;;;;;;;2.06;100.00;102548.31;5221319;28;20040;-71
2022/02/23 04:32:55;;;;;;;19.67;3.97;;;;;;;2.05;100.00;102551.00;5220878;28;20056;-71
2022/02/23 04:35:26;;;;;;;18.08;2.97;;;;;;;1.99;100.00;102548.66;5220987;28;20260;-72
2022/02/23 04:37:56;;;;;;;19.42;4.32;;;;;;;1.95;100.00;102550.56;5220636;28;20486;-72
2022/02/23 04:40:27;;;;;;;14.38;3.35;;;;;;;1.89;100.00;102553.50;5221240;28;20032;-73
2022/02/23 04:42:57;;;;;;;21.35;4.15;;;;;;;1.85;100.00;102554.56;5221336;28;20033;-71
2022/02/23 04:45:28;;;;;;;19.95;4.38;;;;;;;1.85;100.00;102559.00;5221441;28;20024;-72
2022/02/23 04:47:58;;;;;;;23.77;6.15;;;;;;;1.85;100.00;102556.34;5221000;28;20017;-70
2022/02/23 04:50:29;;;;;;;24.50;3.60;;;;;;;1.83;100.00;102553.78;5220674;28;20117;-72
2022/02/23 04:53:00;;;;;;;16.80;4.63;;;;;;;1.83;100.00;102556.44;5220627;28;20505;-71
2022/02/23 04:55:30;;;;;;;30.50;7.18;;;;;;;1.75;100.00;102554.09;5220372;28;20024;-71
2022/02/23 04:58:07;;;;;;;18.05;4.00;;;;;;;1.69;100.00;102558.81;5220646;28;20210;-72
2022/02/23 05:00:38;;;;;;;15.23;3.60;;;;;;;1.62;100.00;102554.72;5220423;28;20052;-72
2022/02/23 05:03:09;;;;;;;21.23;3.85;;;;;;;1.57;100.00;102554.94;5220055;28;20455;-72
2022/02/23 05:05:39;;;;;;;15.30;3.60;;;;;;;1.55;100.00;102556.75;5220461;28;20019;-71
2022/02/23 05:08:10;;;;;;;16.48;3.45;;;;;;;1.52;100.00;102565.72;5219218;28;20044;-71
2022/02/23 05:10:40;;;;;;;26.02;4.93;;;;;;;1.47;100.00;102562.41;5220343;28;20027;-72
2022/02/23 05:13:11;;;;;;;16.02;4.65;;;;;;;1.44;100.00;102565.16;5220174;28;20082;-71
2022/02/23 05:15:41;;;;;;;21.02;4.85;;;;;;;1.43;100.00;102570.53;5219625;28;20053;-72
2022/02/23 05:18:12;;;;;;;20.02;3.80;;;;;;;1.42;100.00;102566.16;5220264;28;20057;-73
2022/02/23 05:20:42;;;;;;;19.48;3.88;;;;;;;1.44;100.00;102567.81;5220537;28;20039;-72
2022/02/23 05:23:14;;;;;;;20.92;4.10;;;;;;;1.45;100.00;102568.66;5220182;28;20096;-71
2022/02/23 05:25:44;;;;;;;15.85;4.40;;;;;;;1.40;100.00;102578.56;5220382;28;20021;-71
2022/02/23 05:28:15;;;;;;;22.50;4.75;;;;;;;1.39;100.00;102568.94;5220167;28;20367;-72
2022/02/23 05:30:46;;;;;;;40.58;5.15;;;;;;;1.39;100.00;102571.56;5220299;28;20183;-72
2022/02/23 05:33:17;;;;;;;23.88;5.03;;;;;;;1.33;100.00;102570.06;5220494;28;20029;-71
2022/02/23 05:35:47;;;;;;;30.83;5.82;;;;;;;1.34;100.00;102573.56;5219817;28;20021;-74
2022/02/23 05:38:18;;;;;;;16.35;4.97;;;;;;;1.32;100.00;102568.34;5220292;28;20028;-72
2022/02/23 05:40:48;;;;;;;17.40;4.68;;;;;;;1.26;100.00;102563.31;5219878;28;20025;-72
2022/02/23 05:43:19;;;;;;;17.92;4.35;;;;;;;1.18;100.00;102570.69;5220180;28;20487;-72
2022/02/23 05:45:49;;;;;;;21.38;4.65;;;;;;;1.13;100.00;102562.94;5219890;28;20024;-72
2022/02/23 05:48:20;;;;;;;18.05;4.32;;;;;;;1.08;100.00;102569.34;5220237;28;20052;-72
2022/02/23 05:50:50;;;;;;;20.80;4.75;;;;;;;1.02;100.00;102570.47;5219888;28;20482;-72
2022/02/23 05:53:21;;;;;;;20.65;4.25;;;;;;;0.98;100.00;102582.09;5219790;28;20055;-73
2022/02/23 05:55:51;;;;;;;22.17;4.97;;;;;;;0.89;100.00;102580.66;5220008;28;20069;-73
2022/02/23 05:58:22;;;;;;;26.65;5.63;;;;;;;0.84;100.00;102580.00;5220047;28;20082;-73
2022/02/23 06:00:52;;;;;;;30.83;6.15;;;;;;;0.84;100.00;102581.78;5219636;28;20056;-73
2022/02/23 06:03:23;;;;;;;24.35;5.78;;;;;;;0.80;100.00;102585.44;5220156;28;20112;-72
2022/02/23 06:05:53;;;;;;;26.83;5.40;;;;;;;0.76;100.00;102590.88;5220001;28;20394;-72
2022/02/23 06:08:23;;;;;;;20.55;5.38;;;;;;;0.67;100.00;102585.94;5220802;28;20032;-73
2022/02/23 06:10:54;;;;;;;29.00;5.25;;;;;;;0.65;100.00;102594.84;5220036;28;20241;-73
2022/02/23 06:13:24;;;;;;;29.88;6.55;;;;;;;0.62;100.00;102595.84;5219736;28;20029;-73
2022/02/23 06:15:55;;;;;;;28.45;6.00;;;;;;;0.61;100.00;102596.75;5219724;28;20052;-74
2022/02/23 06:18:26;;;;;;;23.45;6.15;;;;;;;0.57;100.00;102605.72;5219993;28;20028;-72
2022/02/23 06:20:56;;;;;;;28.60;8.32;;;;;;;0.52;100.00;102602.38;5220197;28;20275;-72
2022/02/23 06:23:27;;;;;;;24.95;8.43;;;;;;;0.50;100.00;102609.50;5219440;28;20040;-72
2022/02/23 06:25:57;;;;;;;28.15;8.32;;;;;;;0.49;100.00;102610.41;5220105;28;20044;-72
2022/02/23 06:28:28;;;;;;;25.42;8.18;;;;;;;0.44;100.00;102618.50;5219333;28;20029;-74
2022/02/23 06:30:59;;;;;;;13.60;5.97;;;;;;;0.35;100.00;102613.59;5218589;28;20025;-73
2022/02/23 06:33:30;;;;;;;25.92;6.32;;;;;;;0.31;100.00;102619.91;5219378;28;20021;-73
2022/02/23 06:36:01;;;;;;;38.15;8.25;;;;;;;0.29;100.00;102607.66;5219362;28;20025;-73
2022/02/23 06:38:31;;;;;;;33.17;7.95;;;;;;;0.37;100.00;102617.03;5221037;28;20045;-72
2022/02/23 06:41:05;;;;;;;24.02;7.97;;;;;;;0.43;100.00;102615.94;5222898;28;20485;-72
2022/02/23 06:43:36;;;;;;;26.48;7.70;;;;;;;0.46;100.00;102626.41;5223268;28;20043;-72
2022/02/23 06:46:07;;;;;;;26.75;7.60;;;;;;;0.48;100.00;102619.28;5222786;28;20433;-72
2022/02/23 06:48:38;;;;;;;31.42;8.00;;;;;;;0.52;100.00;102616.44;5223411;28;20104;-70
2022/02/23 06:51:09;;;;;;;31.73;7.82;;;;;;;0.64;100.00;102623.03;5223851;28;20020;-70
2022/02/23 06:53:40;;;;;;;30.95;10.05;;;;;;;0.75;100.00;102626.16;5223651;28;20040;-70
2022/02/23 06:56:12;;;;;;;45.38;10.38;;;;;;;0.86;100.00;102620.44;5212567;28;20034;-70
2022/02/23 06:59:02;;;;;;;34.65;11.18;;;;;;;0.98;100.00;102617.31;5211578;28;20099;-71
2022/02/23 07:01:34;;;;;;;32.85;11.63;;;;;;;1.08;100.00;102620.44;5221477;28;20025;-71
2022/02/23 07:04:05;;;;;;;37.78;11.98;;;;;;;1.23;100.00;102629.53;5220839;28;20108;-71
2022/02/23 07:06:36;;;;;;;38.40;13.38;;;;;;;1.38;100.00;102623.59;5220202;28;20067;-71
2022/02/23 07:09:07;;;;;;;35.45;10.18;;;;;;;1.50;100.00;102623.09;5216131;28;20033;-71
2022/02/23 07:11:38;;;;;;;42.17;9.25;;;;;;;1.61;100.00;102627.94;5213394;28;20301;-71
2022/02/23 07:14:09;;;;;;;48.70;9.95;;;;;;;1.75;100.00;102625.56;5221140;28;20082;-73
2022/02/23 07:16:39;;;;;;;21.58;7.82;;;;;;;1.81;100.00;102622.66;5220462;28;20032;-72
2022/02/23 07:19:10;;;;;;;28.65;8.98;;;;;;;1.90;100.00;102633.75;5221707;28;20021;-72
2022/02/23 07:21:40;;;;;;;32.28;9.63;;;;;;;2.08;100.00;102628.53;5219436;28;20024;-72
2022/02/23 07:24:11;;;;;;;26.35;7.90;;;;;;;2.25;100.00;102632.19;5220871;28;20025;-72
2022/02/23 07:26:41;;;;;;;22.83;8.57;;;;;;;2.25;100.00;102635.69;5221081;28;20028;-72
2022/02/23 07:29:12;;;;;;;34.45;9.93;;;;;;;2.36;100.00;102637.91;5221309;28;20115;-72
2022/02/23 07:31:44;;;;;;;34.42;10.38;;;;;;;2.62;100.00;102642.00;5220879;28;20025;-72
2022/02/23 07:34:15;;;;;;;21.80;8.10;;;;;;;2.79;100.00;102644.69;5221319;28;20394;-72
2022/02/23 07:36:46;;;;;;;29.85;8.10;;;;;;;2.98;100.00;102642.03;5221276;28;20047;-72
2022/02/23 07:39:16;;;;;;;21.90;7.43;;;;;;;3.14;100.00;102647.47;5221209;28;20017;-73
2022/02/23 07:41:47;;;;;;;28.63;6.88;;;;;;;3.30;100.00;102651.09;5221237;28;20178;-73
2022/02/23 07:44:19;;;;;;;17.13;5.85;;;;;;;3.43;100.00;102650.50;5220731;28;20013;-73
2022/02/23 07:46:49;;;;;;;21.10;6.45;;;;;;;3.58;100.00;102650.59;5220704;28;20032;-73
2022/02/23 07:49:19;;;;;;;26.52;6.53;;;;;;;3.82;100.00;102651.16;5220832;28;20021;-73
2022/02/23 07:51:50;;;;;;;19.40;5.75;;;;;;;4.22;100.00;102648.19;5220224;28;20039;-73
2022/02/23 07:54:21;;;;;;;24.13;6.10;;;;;;;4.77;100.00;102655.84;5220362;28;20431;-74
2022/02/23 07:56:51;;;;;;;18.73;5.30;;;;;;;5.13;100.00;102661.78;5220869;28;20675;-74
2022/02/23 07:59:22;;;;;;;18.50;6.43;;;;;;;5.59;100.00;102656.47;5220529;28;20509;-74
2022/02/23 08:01:52;;;;;;;20.17;5.28;;;;;;;6.03;100.00;102657.50;5220353;28;20064;-73
2022/02/23 08:04:22;;;;;;;22.20;5.57;;;;;;;6.25;100.00;102651.69;5219873;28;20474;-73
2022/02/23 08:06:53;;;;;;;23.42;3.85;;;;;;;6.59;100.00;102661.97;5220074;28;20060;-73
2022/02/23 08:09:23;;;;;;;16.55;4.25;;;;;;;6.82;100.00;102655.19;5220626;28;20025;-73
2022/02/23 08:11:54;;;;;;;19.38;4.30;;;;;;;6.99;100.00;102657.63;5220307;28;20470;-74
2022/02/23 08:14:25;;;;;;;12.60;4.30;;;;;;;7.10;100.00;102661.44;5220357;28;20466;-73
2022/02/23 08:19:44;;;;;;;21.17;6.07;;;;;;;7.86;100.00;102661.66;5221378;28;20021;-71
2022/02/23 08:22:15;;;;;;;21.80;6.07;;;;;;;8.22;100.00;102665.44;5220314;28;20386;-71
2022/02/23 08:24:48;;;;;;;23.02;6.30;;;;;;;8.01;100.00;102668.63;5220665;28;20627;-71
2022/02/23 08:27:20;;;;;;;23.83;6.32;;;;;;;8.00;100.00;102666.06;5219642;28;20032;-71
2022/02/23 08:29:53;;;;;;;24.23;5.28;;;;;;;8.28;100.00;102662.34;5220737;28;20025;-71
2022/02/23 08:32:24;;;;;;;28.00;5.90;;;;;;;8.41;100.00;102668.56;5220453;28;20462;-71
2022/02/23 08:34:54;;;;;;;31.05;6.20;;;;;;;8.45;100.00;102662.06;5219857;28;20115;-72
2022/02/23 08:37:25;;;;;;;26.55;8.25;;;;;;;9.29;100.00;102668.50;5220061;28;20498;-71
2022/02/23 08:39:56;;;;;;;28.95;8.25;;;;;;;9.25;100.00;102661.66;5219603;28;20044;-71
2022/02/23 08:42:26;;;;;;;24.13;7.68;;;;;;;9.14;100.00;102669.63;5219670;28;20032;-71
2022/02/23 08:44:57;;;;;;;34.15;7.38;;;;;;;9.11;100.00;102670.69;5219736;28;20051;-71
2022/02/23 08:47:28;;;;;;;22.17;5.75;;;;;;;9.52;100.00;102674.81;5219989;28;20486;-71
2022/02/23 08:49:59;;;;;;;22.17;4.85;;;;;;;9.05;100.00;102666.66;5220794;28;20221;-71
2022/02/23 08:52:29;;;;;;;17.38;5.28;;;;;;;9.58;100.00;102668.97;5219387;28;20027;-71
2022/02/23 08:55:01;;;;;;;15.35;4.72;;;;;;;9.26;100.00;102669.56;5219190;28;20110;-71
2022/02/23 08:57:31;;;;;;;21.67;4.88;;;;;;;9.82;100.00;102659.06;5219853;28;20024;-71
2022/02/23 09:00:04;;;;;;;17.80;5.05;;;;;;;9.90;100.00;102661.19;5219423;28;20036;-74
2022/02/23 09:02:34;;;;;;;19.48;4.80;;;;;;;9.68;100.00;102661.09;5219420;28;20522;-74
2022/02/23 09:05:05;;;;;;;18.15;4.03;;;;;;;10.20;100.00;102651.75;5219445;28;20115;-73
2022/02/23 09:07:35;;;;;;;16.40;4.70;;;;;;;10.00;100.00;102655.97;5215060;28;20082;-73
2022/02/23 09:10:06;;;;;;;22.13;5.00;;;;;;;9.81;100.00;102648.47;5219937;28;20420;-74
2022/02/23 09:12:37;;;;;;;17.23;4.68;;;;;;;10.03;100.00;102655.72;5219547;28;20528;-74
2022/02/23 09:15:10;;;;;;;19.88;4.53;;;;;;;10.21;100.00;102650.75;5218972;28;20021;-74
2022/02/23 09:17:44;;;;;;;18.73;4.88;;;;;;;9.95;100.00;102656.31;5219520;28;20024;-71
2022/02/23 09:20:15;;;;;;;22.73;4.72;;;;;;;10.66;100.00;102657.03;5219247;28;20033;-71
2022/02/23 09:22:45;;;;;;;18.65;4.60;;;;;;;10.68;100.00;102662.28;5219022;28;20493;-71
2022/02/23 09:25:16;;;;;;;22.77;5.18;;;;;;;11.75;100.00;102656.13;5218497;28;20057;-71
2022/02/23 09:27:46;;;;;;;20.08;4.22;;;;;;;12.47;100.00;102653.47;5218725;28;20031;-71
2022/02/23 09:30:17;;;;;;;20.45;4.32;;;;;;;12.91;100.00;102649.53;5219173;28;20478;-71
2022/02/23 09:32:49;;;;;;;12.55;4.25;;;;;;;12.22;100.00;102657.47;5219747;28;20025;-71
2022/02/23 09:35:21;;;;;;;19.58;4.03;;;;;;;12.47;100.00;102644.56;5219584;28;20337;-71
2022/02/23 09:37:51;;;;;;;18.67;4.07;;;;;;;12.11;100.00;102646.78;5219133;28;20318;-71
2022/02/23 09:40:22;;;;;;;20.52;4.45;;;;;;;11.34;100.00;102636.25;5218850;28;20112;-71
2022/02/23 09:42:52;;;;;;;14.63;4.00;;;;;;;11.52;100.00;102640.09;5219107;28;20116;-73
2022/02/23 09:45:23;;;;;;;18.52;4.35;;;;;;;12.09;100.00;102633.44;5218800;28;20029;-71
2022/02/23 09:47:54;;;;;;;17.77;3.83;;;;;;;12.06;100.00;102630.19;5217916;28;20033;-72
2022/02/23 09:50:26;;;;;;;17.85;4.25;;;;;;;11.60;100.00;102634.94;5218263;28;20025;-72
2022/02/23 09:52:56;;;;;;;16.25;4.22;;;;;;;12.11;100.00;102631.50;5218477;28;20383;-71
2022/02/23 09:55:29;;;;;;;17.63;3.85;;;;;;;12.81;100.00;102634.34;5218828;28;20051;-71
2022/02/23 09:58:00;;;;;;;24.70;4.40;;;;;;;12.72;100.00;102636.00;5219120;28;20025;-71
2022/02/23 10:00:32;;;;;;;21.65;4.82;;;;;;;12.30;100.00;102625.38;5219181;28;20021;-71
2022/02/23 10:03:04;;;;;;;20.85;4.60;;;;;;;11.98;100.00;102630.00;5218677;28;20032;-71
2022/02/23 10:05:38;;;;;;;14.88;4.53;;;;;;;12.83;100.00;102617.03;5218867;28;20369;-71
2022/02/23 10:08:10;;;;;;;22.33;4.15;;;;;;;12.63;100.00;102626.06;5218359;28;20483;-71
2022/02/23 10:10:43;;;;;;;19.08;4.47;;;;;;;12.83;100.00;102619.72;5219088;28;20033;-71
2022/02/23 10:13:17;;;;;;;19.27;4.13;;;;;;;13.07;100.00;102624.75;5220785;28;20033;-73
2022/02/23 10:15:49;;;;;;;19.63;4.47;;;;;;;12.47;100.00;102618.50;5221699;28;20021;-71
2022/02/23 10:18:19;;;;;;;19.35;4.72;;;;;;;12.83;100.00;102616.19;5222696;28;20104;-72
2022/02/23 10:20:51;;;;;;;18.88;5.43;;;;;;;11.75;100.00;102626.56;5223184;28;20451;-71
2022/02/23 10:23:23;;;;;;;26.48;5.55;;;;;;;12.08;100.00;102630.91;5222448;28;20030;-72
2022/02/23 10:25:58;;;;;;;21.42;4.57;;;;;;;12.13;100.00;102610.69;5222197;28;20729;-72
2022/02/23 10:28:32;;;;;;;21.38;4.40;;;;;;;12.39;100.00;102621.00;5222893;28;20032;-72
2022/02/23 10:31:09;;;;;;;17.02;4.80;;;;;;;12.57;100.00;102611.31;5222938;28;20032;-72
2022/02/23 10:33:43;;;;;;;33.15;4.72;;;;;;;12.37;100.00;102614.91;5223068;28;20033;-72
2022/02/23 10:36:16;;;;;;;17.27;4.57;;;;;;;12.05;100.00;102615.88;5221904;28;20032;-72
2022/02/23 10:38:50;;;;;;;18.55;4.30;;;;;;;11.61;100.00;102612.44;5223026;28;20474;-72
2022/02/23 10:41:25;;;;;;;21.15;4.90;;;;;;;11.37;100.00;102614.50;5222770;28;20049;-72
2022/02/23 10:43:56;;;;;;;18.85;3.88;;;;;;;11.40;100.00;102607.06;5222769;28;20483;-72
2022/02/23 10:46:26;;;;;;;17.35;3.90;;;;;;;11.34;100.00;102604.00;5221947;28;20063;-72
2022/02/23 10:48:59;;;;;;;16.58;3.08;;;;;;;11.42;100.00;102606.91;5222139;28;20383;-72
2022/02/23 10:51:32;;;;;;;16.92;3.25;;;;;;;11.67;100.00;102611.06;5222016;28;20029;-72
2022/02/23 10:54:21;;;;;;;19.02;2.90;;;;;;;11.51;100.00;102595.41;5222336;28;20029;-72
2022/02/23 10:56:53;;;;;;;16.85;2.85;;;;;;;11.85;100.00;102597.94;5222029;28;20031;-72
2022/02/23 10:59:23;;;;;;;19.27;2.97;;;;;;;11.50;100.00;102591.00;5221800;28;20057;-72
2022/02/23 11:01:54;;;;;;;17.00;3.42;;;;;;;11.64;100.00;102596.03;5221841;28;20550;-72
2022/02/23 11:04:24;;;;;;;13.95;3.25;;;;;;;11.62;100.00;102592.63;5222080;28;20021;-72
2022/02/23 11:06:55;;;;;;;12.63;2.67;;;;;;;11.66;100.00;102586.03;5222250;28;20386;-72
2022/02/23 11:09:26;;;;;;;17.13;4.07;;;;;;;11.93;100.00;102585.50;5222448;28;20024;-72
2022/02/23 11:11:57;;;;;;;15.63;2.72;;;;;;;11.91;100.00;102581.25;5222260;28;20031;-72
2022/02/23 11:14:28;;;;;;;10.45;2.42;;;;;;;11.93;100.00;102584.66;5221889;28;20064;-72
2022/02/23 11:17:00;;;;;;;17.13;2.53;;;;;;;12.03;100.00;102579.34;5221757;28;20025;-72
2022/02/23 11:19:33;;;;;;;14.07;2.33;;;;;;;11.73;100.00;102580.13;5222136;28;20040;-72
2022/02/23 11:22:05;;;;;;;8.93;2.33;;;;;;;11.71;100.00;102585.63;5221570;28;20017;-72
2022/02/23 11:24:35;;;;;;;16.00;2.08;;;;;;;11.60;100.00;102572.25;5221207;28;20024;-72
2022/02/23 11:27:11;;;;;;;14.73;2.42;;;;;;;11.58;100.00;102575.06;5221550;28;20028;-72
2022/02/23 11:29:59;;;;;;;13.75;2.58;;;;;;;11.54;100.00;102575.44;5222311;28;20020;-72
2022/02/23 11:32:31;;;;;;;13.15;2.08;;;;;;;11.62;100.00;102576.50;5221490;28;20640;-72
2022/02/23 11:35:02;;;;;;;19.48;2.47;;;;;;;11.74;100.00;102566.53;5221156;28;20078;-72